sensor_id;sensor_type;location;lat;lon;timestamp;P1;durP1;ratioP1;P2;durP2;ratioP2
7173;SDS011;3628;48.654;8.932;2023-04-05T00:00:36;3.33;;;2.47;;
7173;SDS011;3628;48.654;8.932;2023-04-05T00:03:01;4.80;;;3.27;;
7173;SDS011;3628;48.654;8.932;2023-04-05T00:05:28;6.13;;;3.13;;
7173;SDS011;3628;48.654;8.932;2023-04-05T00:07:58;4.90;;;3.07;;
7173;SDS011;3628;48.654;8.932;2023-04-05T00:10:25;3.57;;;3.07;;
7173;SDS011;3628;48.654;8.932;2023-04-05T00:12:51;4.27;;;3.47;;
7173;SDS011;3628;48.654;8.932;2023-04-05T00:15:17;5.00;;;2.70;;
7173;SDS011;3628;48.654;8.932;2023-04-05T00:17:46;4.10;;;3.00;;
7173;SDS011;3628;48.654;8.932;2023-04-05T00:20:11;3.87;;;2.83;;
7173;SDS011;3628;48.654;8.932;2023-04-05T00:22:37;4.50;;;3.13;;
7173;SDS011;3628;48.654;8.932;2023-04-05T00:25:04;6.10;;;3.37;;
7173;SDS011;3628;48.654;8.932;2023-04-05T00:27:30;4.13;;;3.10;;
7173;SDS011;3628;48.654;8.932;2023-04-05T00:29:56;3.67;;;2.80;;
7173;SDS011;3628;48.654;8.932;2023-04-05T00:32:21;3.83;;;2.97;;
7173;SDS011;3628;48.654;8.932;2023-04-05T00:34:47;3.10;;;2.70;;
7173;SDS011;3628;48.654;8.932;2023-04-05T00:37:13;4.97;;;3.20;;
7173;SDS011;3628;48.654;8.932;2023-04-05T00:39:39;5.23;;;3.03;;
7173;SDS011;3628;48.654;8.932;2023-04-05T00:42:05;4.53;;;2.90;;
7173;SDS011;3628;48.654;8.932;2023-04-05T00:44:31;3.37;;;3.07;;
7173;SDS011;3628;48.654;8.932;2023-04-05T00:47:03;4.67;;;2.93;;
7173;SDS011;3628;48.654;8.932;2023-04-05T00:49:31;4.30;;;3.10;;
7173;SDS011;3628;48.654;8.932;2023-04-05T00:51:57;6.57;;;3.90;;
7173;SDS011;3628;48.654;8.932;2023-04-05T00:54:24;7.50;;;4.07;;
7173;SDS011;3628;48.654;8.932;2023-04-05T00:56:51;5.17;;;2.83;;
7173;SDS011;3628;48.654;8.932;2023-04-05T00:59:19;4.70;;;2.80;;
7173;SDS011;3628;48.654;8.932;2023-04-05T01:01:45;3.40;;;2.60;;
7173;SDS011;3628;48.654;8.932;2023-04-05T01:04:25;3.20;;;2.67;;
7173;SDS011;3628;48.654;8.932;2023-04-05T01:09:25;4.63;;;2.90;;
7173;SDS011;3628;48.654;8.932;2023-04-05T01:12:05;4.63;;;3.03;;
7173;SDS011;3628;48.654;8.932;2023-04-05T01:14:49;4.70;;;2.93;;
7173;SDS011;3628;48.654;8.932;2023-04-05T01:17:17;3.80;;;3.00;;
7173;SDS011;3628;48.654;8.932;2023-04-05T01:19:47;3.43;;;2.90;;
7173;SDS011;3628;48.654;8.932;2023-04-05T01:30:38;4.03;;;2.90;;
7173;SDS011;3628;48.654;8.932;2023-04-05T01:38:47;4.77;;;3.17;;
7173;SDS011;3628;48.654;8.932;2023-04-05T01:41:14;4.73;;;2.67;;
7173;SDS011;3628;48.654;8.932;2023-04-05T01:43:40;5.00;;;2.70;;
7173;SDS011;3628;48.654;8.932;2023-04-05T01:46:06;4.90;;;3.07;;
7173;SDS011;3628;48.654;8.932;2023-04-05T01:48:31;3.80;;;2.93;;
7173;SDS011;3628;48.654;8.932;2023-04-05T01:50:57;3.70;;;2.77;;
7173;SDS011;3628;48.654;8.932;2023-04-05T01:53:22;4.97;;;3.47;;
7173;SDS011;3628;48.654;8.932;2023-04-05T01:55:48;4.73;;;2.67;;
7173;SDS011;3628;48.654;8.932;2023-04-05T01:58:14;3.47;;;2.83;;
7173;SDS011;3628;48.654;8.932;2023-04-05T02:00:39;3.67;;;2.87;;
7173;SDS011;3628;48.654;8.932;2023-04-05T02:03:05;3.03;;;2.60;;
7173;SDS011;3628;48.654;8.932;2023-04-05T02:05:30;2.93;;;2.60;;
7173;SDS011;3628;48.654;8.932;2023-04-05T02:07:56;5.17;;;3.17;;
7173;SDS011;3628;48.654;8.932;2023-04-05T02:10:21;5.30;;;2.97;;
7173;SDS011;3628;48.654;8.932;2023-04-05T02:12:48;4.53;;;2.43;;
7173;SDS011;3628;48.654;8.932;2023-04-05T02:15:14;3.47;;;2.60;;
7173;SDS011;3628;48.654;8.932;2023-04-05T02:17:40;3.40;;;2.30;;
7173;SDS011;3628;48.654;8.932;2023-04-05T02:20:10;3.93;;;2.83;;
7173;SDS011;3628;48.654;8.932;2023-04-05T02:22:38;4.47;;;2.37;;
7173;SDS011;3628;48.654;8.932;2023-04-05T02:25:04;4.10;;;2.63;;
7173;SDS011;3628;48.654;8.932;2023-04-05T02:27:33;6.03;;;2.93;;
7173;SDS011;3628;48.654;8.932;2023-04-05T02:29:59;6.10;;;2.73;;
7173;SDS011;3628;48.654;8.932;2023-04-05T02:32:25;4.00;;;2.57;;
7173;SDS011;3628;48.654;8.932;2023-04-05T02:34:50;4.37;;;2.37;;
7173;SDS011;3628;48.654;8.932;2023-04-05T02:37:17;2.70;;;2.17;;
7173;SDS011;3628;48.654;8.932;2023-04-05T02:39:43;4.03;;;2.67;;
7173;SDS011;3628;48.654;8.932;2023-04-05T02:42:09;5.10;;;3.50;;
7173;SDS011;3628;48.654;8.932;2023-04-05T02:44:34;4.87;;;3.10;;
7173;SDS011;3628;48.654;8.932;2023-04-05T02:47:00;3.47;;;2.70;;
7173;SDS011;3628;48.654;8.932;2023-04-05T02:49:26;3.50;;;2.70;;
7173;SDS011;3628;48.654;8.932;2023-04-05T02:51:52;4.13;;;2.90;;
7173;SDS011;3628;48.654;8.932;2023-04-05T02:54:19;5.43;;;3.37;;
7173;SDS011;3628;48.654;8.932;2023-04-05T02:56:45;3.33;;;2.57;;
7173;SDS011;3628;48.654;8.932;2023-04-05T02:59:11;4.47;;;3.27;;
7173;SDS011;3628;48.654;8.932;2023-04-05T03:01:37;3.67;;;2.70;;
7173;SDS011;3628;48.654;8.932;2023-04-05T03:04:08;4.50;;;2.60;;
7173;SDS011;3628;48.654;8.932;2023-04-05T03:06:36;3.53;;;2.63;;
7173;SDS011;3628;48.654;8.932;2023-04-05T03:09:02;4.60;;;2.80;;
7173;SDS011;3628;48.654;8.932;2023-04-05T03:11:28;3.03;;;2.67;;
7173;SDS011;3628;48.654;8.932;2023-04-05T03:13:55;3.67;;;2.90;;
7173;SDS011;3628;48.654;8.932;2023-04-05T03:16:20;3.83;;;3.10;;
7173;SDS011;3628;48.654;8.932;2023-04-05T03:18:47;4.13;;;2.90;;
7173;SDS011;3628;48.654;8.932;2023-04-05T03:21:13;3.23;;;2.67;;
7173;SDS011;3628;48.654;8.932;2023-04-05T03:23:41;4.90;;;2.90;;
7173;SDS011;3628;48.654;8.932;2023-04-05T03:26:10;4.40;;;3.20;;
7173;SDS011;3628;48.654;8.932;2023-04-05T03:28:37;3.47;;;2.90;;
7173;SDS011;3628;48.654;8.932;2023-04-05T03:31:02;5.30;;;2.83;;
7173;SDS011;3628;48.654;8.932;2023-04-05T03:33:28;3.50;;;3.13;;
7173;SDS011;3628;48.654;8.932;2023-04-05T03:35:53;5.50;;;3.97;;
7173;SDS011;3628;48.654;8.932;2023-04-05T03:38:19;5.63;;;3.37;;
7173;SDS011;3628;48.654;8.932;2023-04-05T03:40:45;6.00;;;3.47;;
7173;SDS011;3628;48.654;8.932;2023-04-05T03:43:11;5.30;;;3.10;;
7173;SDS011;3628;48.654;8.932;2023-04-05T03:45:36;4.80;;;3.23;;
7173;SDS011;3628;48.654;8.932;2023-04-05T03:48:02;8.40;;;3.50;;
7173;SDS011;3628;48.654;8.932;2023-04-05T03:50:28;3.53;;;2.80;;
7173;SDS011;3628;48.654;8.932;2023-04-05T03:52:53;3.50;;;2.80;;
7173;SDS011;3628;48.654;8.932;2023-04-05T03:55:19;4.43;;;2.93;;
7173;SDS011;3628;48.654;8.932;2023-04-05T03:57:45;4.17;;;2.80;;
7173;SDS011;3628;48.654;8.932;2023-04-05T04:00:11;3.73;;;3.10;;
7173;SDS011;3628;48.654;8.932;2023-04-05T04:02:50;3.73;;;2.87;;
7173;SDS011;3628;48.654;8.932;2023-04-05T04:05:16;5.77;;;3.40;;
7173;SDS011;3628;48.654;8.932;2023-04-05T04:07:42;5.50;;;3.40;;
7173;SDS011;3628;48.654;8.932;2023-04-05T04:10:09;3.90;;;3.20;;
7173;SDS011;3628;48.654;8.932;2023-04-05T04:12:36;4.13;;;3.20;;
7173;SDS011;3628;48.654;8.932;2023-04-05T04:15:02;4.30;;;2.83;;
7173;SDS011;3628;48.654;8.932;2023-04-05T04:17:31;6.63;;;3.50;;
7173;SDS011;3628;48.654;8.932;2023-04-05T04:19:57;4.43;;;3.80;;
7173;SDS011;3628;48.654;8.932;2023-04-05T04:22:24;4.97;;;3.57;;
7173;SDS011;3628;48.654;8.932;2023-04-05T04:24:57;3.67;;;3.00;;
7173;SDS011;3628;48.654;8.932;2023-04-05T04:27:28;4.60;;;3.10;;
7173;SDS011;3628;48.654;8.932;2023-04-05T04:30:00;3.00;;;2.63;;
7173;SDS011;3628;48.654;8.932;2023-04-05T04:32:28;4.97;;;2.87;;
7173;SDS011;3628;48.654;8.932;2023-04-05T04:35:14;4.03;;;3.13;;
7173;SDS011;3628;48.654;8.932;2023-04-05T04:37:44;3.27;;;2.70;;
7173;SDS011;3628;48.654;8.932;2023-04-05T04:40:11;7.97;;;3.53;;
7173;SDS011;3628;48.654;8.932;2023-04-05T04:42:41;4.00;;;3.07;;
7173;SDS011;3628;48.654;8.932;2023-04-05T04:45:10;5.67;;;3.00;;
7173;SDS011;3628;48.654;8.932;2023-04-05T04:47:37;5.17;;;3.60;;
7173;SDS011;3628;48.654;8.932;2023-04-05T04:50:02;8.67;;;3.30;;
7173;SDS011;3628;48.654;8.932;2023-04-05T04:52:29;11.30;;;3.87;;
7173;SDS011;3628;48.654;8.932;2023-04-05T04:54:54;5.80;;;4.10;;
7173;SDS011;3628;48.654;8.932;2023-04-05T04:57:20;7.47;;;3.97;;
7173;SDS011;3628;48.654;8.932;2023-04-05T04:59:46;6.80;;;3.03;;
7173;SDS011;3628;48.654;8.932;2023-04-05T05:02:11;7.70;;;3.03;;
7173;SDS011;3628;48.654;8.932;2023-04-05T05:04:37;5.70;;;3.47;;
7173;SDS011;3628;48.654;8.932;2023-04-05T05:07:05;4.27;;;3.23;;
7173;SDS011;3628;48.654;8.932;2023-04-05T05:09:30;5.90;;;3.27;;
7173;SDS011;3628;48.654;8.932;2023-04-05T05:11:56;5.97;;;3.50;;
7173;SDS011;3628;48.654;8.932;2023-04-05T05:14:23;5.30;;;2.93;;
7173;SDS011;3628;48.654;8.932;2023-04-05T05:16:48;3.30;;;2.73;;
7173;SDS011;3628;48.654;8.932;2023-04-05T05:19:14;4.63;;;3.10;;
7173;SDS011;3628;48.654;8.932;2023-04-05T05:21:40;5.03;;;3.17;;
7173;SDS011;3628;48.654;8.932;2023-04-05T05:24:05;7.47;;;4.00;;
7173;SDS011;3628;48.654;8.932;2023-04-05T05:26:33;12.43;;;3.97;;
7173;SDS011;3628;48.654;8.932;2023-04-05T05:29:00;11.43;;;4.07;;
7173;SDS011;3628;48.654;8.932;2023-04-05T05:31:26;7.97;;;4.33;;
7173;SDS011;3628;48.654;8.932;2023-04-05T05:33:53;5.63;;;3.80;;
7173;SDS011;3628;48.654;8.932;2023-04-05T05:36:18;12.47;;;4.37;;
7173;SDS011;3628;48.654;8.932;2023-04-05T05:38:44;7.03;;;4.47;;
7173;SDS011;3628;48.654;8.932;2023-04-05T05:41:10;7.23;;;4.47;;
7173;SDS011;3628;48.654;8.932;2023-04-05T05:43:35;9.03;;;4.10;;
7173;SDS011;3628;48.654;8.932;2023-04-05T05:46:01;9.77;;;4.03;;
7173;SDS011;3628;48.654;8.932;2023-04-05T05:48:27;12.67;;;4.17;;
7173;SDS011;3628;48.654;8.932;2023-04-05T05:50:52;8.90;;;4.53;;
7173;SDS011;3628;48.654;8.932;2023-04-05T05:53:18;11.07;;;4.73;;
7173;SDS011;3628;48.654;8.932;2023-04-05T05:55:44;6.13;;;4.50;;
7173;SDS011;3628;48.654;8.932;2023-04-05T05:58:10;7.30;;;4.57;;
7173;SDS011;3628;48.654;8.932;2023-04-05T06:00:36;5.97;;;3.87;;
7173;SDS011;3628;48.654;8.932;2023-04-05T06:03:02;9.30;;;4.37;;
7173;SDS011;3628;48.654;8.932;2023-04-05T06:05:29;8.97;;;4.30;;
7173;SDS011;3628;48.654;8.932;2023-04-05T06:07:55;5.97;;;4.00;;
7173;SDS011;3628;48.654;8.932;2023-04-05T06:10:21;9.13;;;4.07;;
7173;SDS011;3628;48.654;8.932;2023-04-05T06:12:49;6.07;;;3.90;;
7173;SDS011;3628;48.654;8.932;2023-04-05T06:15:14;9.57;;;4.53;;
7173;SDS011;3628;48.654;8.932;2023-04-05T06:17:40;13.93;;;4.60;;
7173;SDS011;3628;48.654;8.932;2023-04-05T06:20:08;7.17;;;3.80;;
7173;SDS011;3628;48.654;8.932;2023-04-05T06:22:35;4.50;;;3.53;;
7173;SDS011;3628;48.654;8.932;2023-04-05T06:25:04;5.73;;;4.00;;
7173;SDS011;3628;48.654;8.932;2023-04-05T06:27:30;9.37;;;3.57;;
7173;SDS011;3628;48.654;8.932;2023-04-05T06:29:58;8.67;;;3.77;;
7173;SDS011;3628;48.654;8.932;2023-04-05T06:32:24;8.23;;;3.47;;
7173;SDS011;3628;48.654;8.932;2023-04-05T06:34:49;7.67;;;3.97;;
7173;SDS011;3628;48.654;8.932;2023-04-05T06:37:15;7.73;;;3.87;;
7173;SDS011;3628;48.654;8.932;2023-04-05T06:39:40;7.60;;;4.53;;
7173;SDS011;3628;48.654;8.932;2023-04-05T06:42:06;6.23;;;4.00;;
7173;SDS011;3628;48.654;8.932;2023-04-05T06:44:32;5.07;;;3.77;;
7173;SDS011;3628;48.654;8.932;2023-04-05T06:46:57;6.40;;;4.30;;
7173;SDS011;3628;48.654;8.932;2023-04-05T06:49:23;10.40;;;4.33;;
7173;SDS011;3628;48.654;8.932;2023-04-05T06:51:49;8.23;;;3.63;;
7173;SDS011;3628;48.654;8.932;2023-04-05T06:54:14;9.13;;;4.80;;
7173;SDS011;3628;48.654;8.932;2023-04-05T06:56:40;11.43;;;4.00;;
7173;SDS011;3628;48.654;8.932;2023-04-05T06:59:05;10.13;;;4.37;;
7173;SDS011;3628;48.654;8.932;2023-04-05T07:01:31;7.33;;;4.03;;
7173;SDS011;3628;48.654;8.932;2023-04-05T07:03:57;5.87;;;4.17;;
7173;SDS011;3628;48.654;8.932;2023-04-05T07:06:23;6.40;;;3.77;;
7173;SDS011;3628;48.654;8.932;2023-04-05T07:08:48;7.83;;;4.40;;
7173;SDS011;3628;48.654;8.932;2023-04-05T07:11:14;5.47;;;3.53;;
7173;SDS011;3628;48.654;8.932;2023-04-05T07:13:40;5.37;;;3.47;;
7173;SDS011;3628;48.654;8.932;2023-04-05T07:16:05;7.07;;;3.60;;
7173;SDS011;3628;48.654;8.932;2023-04-05T07:18:31;6.23;;;3.37;;
7173;SDS011;3628;48.654;8.932;2023-04-05T07:20:57;5.37;;;3.63;;
7173;SDS011;3628;48.654;8.932;2023-04-05T07:23:27;9.03;;;3.90;;
7173;SDS011;3628;48.654;8.932;2023-04-05T07:25:54;7.77;;;4.10;;
7173;SDS011;3628;48.654;8.932;2023-04-05T07:28:28;6.67;;;3.30;;
7173;SDS011;3628;48.654;8.932;2023-04-05T07:30:54;8.90;;;3.80;;
7173;SDS011;3628;48.654;8.932;2023-04-05T07:33:19;7.10;;;3.53;;
7173;SDS011;3628;48.654;8.932;2023-04-05T07:35:50;5.20;;;3.53;;
7173;SDS011;3628;48.654;8.932;2023-04-05T07:38:17;4.27;;;3.57;;
7173;SDS011;3628;48.654;8.932;2023-04-05T07:40:42;7.23;;;3.83;;
7173;SDS011;3628;48.654;8.932;2023-04-05T07:43:08;9.77;;;3.60;;
7173;SDS011;3628;48.654;8.932;2023-04-05T07:45:33;6.20;;;3.57;;
7173;SDS011;3628;48.654;8.932;2023-04-05T07:48:02;4.97;;;3.60;;
7173;SDS011;3628;48.654;8.932;2023-04-05T07:50:27;4.43;;;3.33;;
7173;SDS011;3628;48.654;8.932;2023-04-05T07:52:53;8.63;;;3.70;;
7173;SDS011;3628;48.654;8.932;2023-04-05T07:55:19;6.00;;;3.77;;
7173;SDS011;3628;48.654;8.932;2023-04-05T07:57:45;5.30;;;3.60;;
7173;SDS011;3628;48.654;8.932;2023-04-05T08:00:11;8.03;;;3.67;;
7173;SDS011;3628;48.654;8.932;2023-04-05T08:02:40;5.77;;;3.83;;
7173;SDS011;3628;48.654;8.932;2023-04-05T08:05:05;4.17;;;3.77;;
7173;SDS011;3628;48.654;8.932;2023-04-05T08:07:31;6.27;;;3.40;;
7173;SDS011;3628;48.654;8.932;2023-04-05T08:09:57;4.57;;;3.27;;
7173;SDS011;3628;48.654;8.932;2023-04-05T08:12:24;4.83;;;3.33;;
7173;SDS011;3628;48.654;8.932;2023-04-05T08:14:50;5.77;;;3.57;;
7173;SDS011;3628;48.654;8.932;2023-04-05T08:17:16;6.63;;;3.57;;
7173;SDS011;3628;48.654;8.932;2023-04-05T08:19:42;7.03;;;3.33;;
7173;SDS011;3628;48.654;8.932;2023-04-05T08:22:07;3.83;;;3.40;;
7173;SDS011;3628;48.654;8.932;2023-04-05T08:24:33;5.43;;;3.50;;
7173;SDS011;3628;48.654;8.932;2023-04-05T08:26:58;4.87;;;3.20;;
7173;SDS011;3628;48.654;8.932;2023-04-05T08:29:24;4.17;;;3.10;;
7173;SDS011;3628;48.654;8.932;2023-04-05T08:31:50;5.17;;;3.40;;
7173;SDS011;3628;48.654;8.932;2023-04-05T08:34:16;4.03;;;2.83;;
7173;SDS011;3628;48.654;8.932;2023-04-05T08:36:41;4.87;;;3.23;;
7173;SDS011;3628;48.654;8.932;2023-04-05T08:39:07;4.73;;;3.20;;
7173;SDS011;3628;48.654;8.932;2023-04-05T08:41:36;3.43;;;2.70;;
7173;SDS011;3628;48.654;8.932;2023-04-05T08:44:07;3.73;;;3.00;;
7173;SDS011;3628;48.654;8.932;2023-04-05T08:46:34;4.77;;;3.40;;
7173;SDS011;3628;48.654;8.932;2023-04-05T08:49:04;4.33;;;3.30;;
7173;SDS011;3628;48.654;8.932;2023-04-05T08:51:35;5.87;;;3.07;;
7173;SDS011;3628;48.654;8.932;2023-04-05T08:54:03;5.50;;;2.77;;
7173;SDS011;3628;48.654;8.932;2023-04-05T08:56:32;5.73;;;3.13;;
7173;SDS011;3628;48.654;8.932;2023-04-05T08:59:01;4.20;;;2.70;;
7173;SDS011;3628;48.654;8.932;2023-04-05T09:01:28;3.60;;;2.47;;
7173;SDS011;3628;48.654;8.932;2023-04-05T09:03:56;4.23;;;2.40;;
7173;SDS011;3628;48.654;8.932;2023-04-05T09:06:29;2.90;;;2.40;;
7173;SDS011;3628;48.654;8.932;2023-04-05T09:08:58;4.00;;;2.67;;
7173;SDS011;3628;48.654;8.932;2023-04-05T09:11:24;2.50;;;2.17;;
7173;SDS011;3628;48.654;8.932;2023-04-05T09:13:50;3.00;;;2.60;;
7173;SDS011;3628;48.654;8.932;2023-04-05T09:16:15;2.90;;;2.27;;
7173;SDS011;3628;48.654;8.932;2023-04-05T09:18:41;3.80;;;2.40;;
7173;SDS011;3628;48.654;8.932;2023-04-05T09:21:07;3.20;;;2.50;;
7173;SDS011;3628;48.654;8.932;2023-04-05T09:23:34;2.90;;;2.43;;
7173;SDS011;3628;48.654;8.932;2023-04-05T09:26:03;3.03;;;2.37;;
7173;SDS011;3628;48.654;8.932;2023-04-05T09:28:42;2.40;;;1.97;;
7173;SDS011;3628;48.654;8.932;2023-04-05T09:31:07;3.67;;;2.70;;
7173;SDS011;3628;48.654;8.932;2023-04-05T09:33:33;3.40;;;2.60;;
7173;SDS011;3628;48.654;8.932;2023-04-05T09:35:59;3.80;;;2.53;;
7173;SDS011;3628;48.654;8.932;2023-04-05T09:38:41;2.60;;;2.17;;
7173;SDS011;3628;48.654;8.932;2023-04-05T09:41:08;2.97;;;2.57;;
7173;SDS011;3628;48.654;8.932;2023-04-05T09:43:35;3.87;;;2.50;;
7173;SDS011;3628;48.654;8.932;2023-04-05T09:46:04;3.40;;;2.50;;
7173;SDS011;3628;48.654;8.932;2023-04-05T09:48:46;3.47;;;2.40;;
7173;SDS011;3628;48.654;8.932;2023-04-05T09:51:13;6.93;;;2.47;;
7173;SDS011;3628;48.654;8.932;2023-04-05T09:56:31;2.63;;;2.10;;
7173;SDS011;3628;48.654;8.932;2023-04-05T09:59:07;4.23;;;2.23;;
7173;SDS011;3628;48.654;8.932;2023-04-05T10:01:35;4.17;;;2.10;;
7173;SDS011;3628;48.654;8.932;2023-04-05T10:04:01;3.30;;;2.37;;
7173;SDS011;3628;48.654;8.932;2023-04-05T10:06:33;2.73;;;2.30;;
7173;SDS011;3628;48.654;8.932;2023-04-05T10:09:00;3.30;;;2.83;;
7173;SDS011;3628;48.654;8.932;2023-04-05T10:11:26;3.53;;;2.40;;
7173;SDS011;3628;48.654;8.932;2023-04-05T10:13:52;2.90;;;2.50;;
7173;SDS011;3628;48.654;8.932;2023-04-05T10:16:19;3.67;;;2.10;;
7173;SDS011;3628;48.654;8.932;2023-04-05T10:18:48;2.40;;;2.20;;
7173;SDS011;3628;48.654;8.932;2023-04-05T10:21:18;2.37;;;1.87;;
7173;SDS011;3628;48.654;8.932;2023-04-05T10:23:48;2.50;;;2.00;;
7173;SDS011;3628;48.654;8.932;2023-04-05T10:26:34;2.33;;;2.10;;
7173;SDS011;3628;48.654;8.932;2023-04-05T10:29:08;3.87;;;2.10;;
7173;SDS011;3628;48.654;8.932;2023-04-05T10:32:11;3.20;;;2.40;;
7173;SDS011;3628;48.654;8.932;2023-04-05T10:34:44;3.33;;;2.60;;
7173;SDS011;3628;48.654;8.932;2023-04-05T10:40:26;2.77;;;2.40;;
7173;SDS011;3628;48.654;8.932;2023-04-05T10:42:57;3.10;;;2.13;;
7173;SDS011;3628;48.654;8.932;2023-04-05T10:45:23;2.27;;;2.03;;
7173;SDS011;3628;48.654;8.932;2023-04-05T10:47:58;3.17;;;1.70;;
7173;SDS011;3628;48.654;8.932;2023-04-05T10:50:33;3.00;;;2.00;;
7173;SDS011;3628;48.654;8.932;2023-04-05T10:53:00;2.50;;;2.00;;
7173;SDS011;3628;48.654;8.932;2023-04-05T10:55:26;3.10;;;2.43;;
7173;SDS011;3628;48.654;8.932;2023-04-05T10:57:53;3.00;;;2.07;;
7173;SDS011;3628;48.654;8.932;2023-04-05T11:00:19;2.80;;;2.20;;
7173;SDS011;3628;48.654;8.932;2023-04-05T11:02:47;4.07;;;2.10;;
7173;SDS011;3628;48.654;8.932;2023-04-05T11:05:30;3.03;;;2.10;;
7173;SDS011;3628;48.654;8.932;2023-04-05T11:07:59;3.97;;;2.10;;
7173;SDS011;3628;48.654;8.932;2023-04-05T11:10:29;2.80;;;2.40;;
7173;SDS011;3628;48.654;8.932;2023-04-05T11:18:06;3.03;;;2.23;;
7173;SDS011;3628;48.654;8.932;2023-04-05T11:23:20;3.83;;;2.00;;
7173;SDS011;3628;48.654;8.932;2023-04-05T11:25:54;2.57;;;2.23;;
7173;SDS011;3628;48.654;8.932;2023-04-05T11:28:36;4.03;;;1.90;;
7173;SDS011;3628;48.654;8.932;2023-04-05T11:36:10;2.77;;;2.10;;
7173;SDS011;3628;48.654;8.932;2023-04-05T11:38:37;2.73;;;2.20;;
7173;SDS011;3628;48.654;8.932;2023-04-05T11:41:05;2.70;;;2.17;;
7173;SDS011;3628;48.654;8.932;2023-04-05T11:43:42;4.63;;;2.30;;
7173;SDS011;3628;48.654;8.932;2023-04-05T11:46:08;3.23;;;1.90;;
7173;SDS011;3628;48.654;8.932;2023-04-05T11:48:34;3.23;;;2.47;;
7173;SDS011;3628;48.654;8.932;2023-04-05T11:51:00;4.73;;;2.43;;
7173;SDS011;3628;48.654;8.932;2023-04-05T11:53:31;2.30;;;1.93;;
7173;SDS011;3628;48.654;8.932;2023-04-05T11:55:57;2.70;;;2.17;;
7173;SDS011;3628;48.654;8.932;2023-04-05T11:58:36;2.63;;;1.90;;
7173;SDS011;3628;48.654;8.932;2023-04-05T12:01:03;3.57;;;2.20;;
7173;SDS011;3628;48.654;8.932;2023-04-05T12:03:33;2.93;;;2.30;;
7173;SDS011;3628;48.654;8.932;2023-04-05T12:06:00;2.47;;;2.20;;
7173;SDS011;3628;48.654;8.932;2023-04-05T12:08:40;2.63;;;2.43;;
7173;SDS011;3628;48.654;8.932;2023-04-05T12:11:13;2.60;;;2.00;;
7173;SDS011;3628;48.654;8.932;2023-04-05T12:13:39;3.20;;;2.00;;
7173;SDS011;3628;48.654;8.932;2023-04-05T12:16:05;3.60;;;1.90;;
7173;SDS011;3628;48.654;8.932;2023-04-05T12:18:33;3.23;;;2.20;;
7173;SDS011;3628;48.654;8.932;2023-04-05T12:21:06;3.03;;;2.27;;
7173;SDS011;3628;48.654;8.932;2023-04-05T12:23:33;2.37;;;2.10;;
7173;SDS011;3628;48.654;8.932;2023-04-05T12:26:01;3.23;;;2.23;;
7173;SDS011;3628;48.654;8.932;2023-04-05T12:34:08;2.83;;;2.10;;
7173;SDS011;3628;48.654;8.932;2023-04-05T12:36:35;2.03;;;1.83;;
7173;SDS011;3628;48.654;8.932;2023-04-05T12:39:06;2.63;;;2.27;;
7173;SDS011;3628;48.654;8.932;2023-04-05T12:41:33;3.53;;;2.00;;
7173;SDS011;3628;48.654;8.932;2023-04-05T12:43:59;2.53;;;2.27;;
7173;SDS011;3628;48.654;8.932;2023-04-05T12:46:51;2.60;;;2.40;;
7173;SDS011;3628;48.654;8.932;2023-04-05T12:49:24;3.37;;;2.50;;
7173;SDS011;3628;48.654;8.932;2023-04-05T12:51:52;3.60;;;2.70;;
7173;SDS011;3628;48.654;8.932;2023-04-05T12:54:21;3.23;;;2.30;;
7173;SDS011;3628;48.654;8.932;2023-04-05T12:56:50;3.53;;;2.50;;
7173;SDS011;3628;48.654;8.932;2023-04-05T12:59:18;2.90;;;2.50;;
7173;SDS011;3628;48.654;8.932;2023-04-05T13:01:44;4.40;;;2.97;;
7173;SDS011;3628;48.654;8.932;2023-04-05T13:04:10;2.70;;;2.40;;
7173;SDS011;3628;48.654;8.932;2023-04-05T13:06:35;3.57;;;2.50;;
7173;SDS011;3628;48.654;8.932;2023-04-05T13:09:01;4.50;;;2.73;;
7173;SDS011;3628;48.654;8.932;2023-04-05T13:11:26;3.03;;;2.17;;
7173;SDS011;3628;48.654;8.932;2023-04-05T13:13:52;3.90;;;2.20;;
7173;SDS011;3628;48.654;8.932;2023-04-05T13:16:18;3.30;;;2.00;;
7173;SDS011;3628;48.654;8.932;2023-04-05T13:18:43;2.43;;;2.23;;
7173;SDS011;3628;48.654;8.932;2023-04-05T13:21:09;3.17;;;2.47;;
7173;SDS011;3628;48.654;8.932;2023-04-05T13:23:35;6.57;;;2.40;;
7173;SDS011;3628;48.654;8.932;2023-04-05T13:26:02;3.63;;;2.73;;
7173;SDS011;3628;48.654;8.932;2023-04-05T13:28:28;3.77;;;2.47;;
7173;SDS011;3628;48.654;8.932;2023-04-05T13:30:54;2.30;;;2.10;;
7173;SDS011;3628;48.654;8.932;2023-04-05T13:33:20;3.30;;;2.87;;
7173;SDS011;3628;48.654;8.932;2023-04-05T13:35:46;4.60;;;2.60;;
7173;SDS011;3628;48.654;8.932;2023-04-05T13:38:11;3.83;;;2.63;;
7173;SDS011;3628;48.654;8.932;2023-04-05T13:40:37;2.83;;;2.50;;
7173;SDS011;3628;48.654;8.932;2023-04-05T13:43:03;3.73;;;2.77;;
7173;SDS011;3628;48.654;8.932;2023-04-05T13:45:29;4.53;;;3.30;;
7173;SDS011;3628;48.654;8.932;2023-04-05T13:47:58;2.70;;;2.50;;
7173;SDS011;3628;48.654;8.932;2023-04-05T13:50:23;4.13;;;3.10;;
7173;SDS011;3628;48.654;8.932;2023-04-05T13:52:49;4.27;;;2.87;;
7173;SDS011;3628;48.654;8.932;2023-04-05T13:55:16;4.23;;;3.03;;
7173;SDS011;3628;48.654;8.932;2023-04-05T13:57:42;4.73;;;2.97;;
7173;SDS011;3628;48.654;8.932;2023-04-05T14:00:08;4.57;;;3.07;;
7173;SDS011;3628;48.654;8.932;2023-04-05T14:02:34;2.93;;;2.70;;
7173;SDS011;3628;48.654;8.932;2023-04-05T14:05:00;4.50;;;3.10;;
7173;SDS011;3628;48.654;8.932;2023-04-05T14:07:26;2.87;;;2.40;;
7173;SDS011;3628;48.654;8.932;2023-04-05T14:09:52;3.33;;;2.30;;
7173;SDS011;3628;48.654;8.932;2023-04-05T14:12:17;3.50;;;2.10;;
7173;SDS011;3628;48.654;8.932;2023-04-05T14:14:43;2.60;;;2.40;;
7173;SDS011;3628;48.654;8.932;2023-04-05T14:17:08;2.70;;;2.40;;
7173;SDS011;3628;48.654;8.932;2023-04-05T14:19:36;3.77;;;2.47;;
7173;SDS011;3628;48.654;8.932;2023-04-05T14:22:02;3.33;;;2.30;;
7173;SDS011;3628;48.654;8.932;2023-04-05T14:24:28;2.63;;;2.40;;
7173;SDS011;3628;48.654;8.932;2023-04-05T14:26:53;4.30;;;2.63;;
7173;SDS011;3628;48.654;8.932;2023-04-05T14:29:20;4.00;;;2.57;;
7173;SDS011;3628;48.654;8.932;2023-04-05T14:31:46;2.97;;;2.33;;
7173;SDS011;3628;48.654;8.932;2023-04-05T14:34:12;3.37;;;2.60;;
7173;SDS011;3628;48.654;8.932;2023-04-05T14:36:38;5.10;;;2.70;;
7173;SDS011;3628;48.654;8.932;2023-04-05T14:39:03;2.90;;;2.37;;
7173;SDS011;3628;48.654;8.932;2023-04-05T14:41:29;2.80;;;2.60;;
7173;SDS011;3628;48.654;8.932;2023-04-05T14:43:55;5.60;;;2.80;;
7173;SDS011;3628;48.654;8.932;2023-04-05T14:46:21;3.57;;;2.73;;
7173;SDS011;3628;48.654;8.932;2023-04-05T14:48:46;5.50;;;2.67;;
7173;SDS011;3628;48.654;8.932;2023-04-05T14:51:12;6.27;;;2.87;;
7173;SDS011;3628;48.654;8.932;2023-04-05T14:53:38;2.70;;;2.50;;
7173;SDS011;3628;48.654;8.932;2023-04-05T14:56:04;3.70;;;2.73;;
7173;SDS011;3628;48.654;8.932;2023-04-05T14:58:30;2.53;;;2.17;;
7173;SDS011;3628;48.654;8.932;2023-04-05T15:00:58;4.37;;;3.00;;
7173;SDS011;3628;48.654;8.932;2023-04-05T15:03:23;3.70;;;2.73;;
7173;SDS011;3628;48.654;8.932;2023-04-05T15:05:49;2.80;;;2.53;;
7173;SDS011;3628;48.654;8.932;2023-04-05T15:08:15;3.63;;;3.03;;
7173;SDS011;3628;48.654;8.932;2023-04-05T15:10:40;4.50;;;3.00;;
7173;SDS011;3628;48.654;8.932;2023-04-05T15:13:06;3.77;;;3.33;;
7173;SDS011;3628;48.654;8.932;2023-04-05T15:15:33;4.53;;;3.00;;
7173;SDS011;3628;48.654;8.932;2023-04-05T15:18:00;3.30;;;3.00;;
7173;SDS011;3628;48.654;8.932;2023-04-05T15:20:26;4.33;;;3.33;;
7173;SDS011;3628;48.654;8.932;2023-04-05T15:22:52;4.43;;;3.23;;
7173;SDS011;3628;48.654;8.932;2023-04-05T15:25:17;4.57;;;3.00;;
7173;SDS011;3628;48.654;8.932;2023-04-05T15:27:43;4.57;;;3.17;;
7173;SDS011;3628;48.654;8.932;2023-04-05T15:30:09;3.10;;;2.80;;
7173;SDS011;3628;48.654;8.932;2023-04-05T15:32:35;4.57;;;2.73;;
7173;SDS011;3628;48.654;8.932;2023-04-05T15:35:01;5.50;;;2.90;;
7173;SDS011;3628;48.654;8.932;2023-04-05T15:37:27;4.00;;;3.10;;
7173;SDS011;3628;48.654;8.932;2023-04-05T15:39:53;3.33;;;3.00;;
7173;SDS011;3628;48.654;8.932;2023-04-05T15:42:19;5.10;;;2.77;;
7173;SDS011;3628;48.654;8.932;2023-04-05T15:44:46;5.53;;;3.00;;
7173;SDS011;3628;48.654;8.932;2023-04-05T15:47:12;3.03;;;2.50;;
7173;SDS011;3628;48.654;8.932;2023-04-05T15:49:38;5.10;;;3.13;;
7173;SDS011;3628;48.654;8.932;2023-04-05T15:52:03;3.80;;;3.20;;
7173;SDS011;3628;48.654;8.932;2023-04-05T15:54:29;4.73;;;2.80;;
7173;SDS011;3628;48.654;8.932;2023-04-05T15:56:54;3.17;;;2.73;;